Galveston, TX (77550)

12:33 AM CST on January 23, 2017 (GMT -0600)
Galveston.com | | Change Station
Active Advisory: Small Craft Advisory

Elev 36 ft 29.31 °N, 94.79 °W | Updated 14 seconds ago

Clear
Clear
60.8 °F
Feels Like 60.8 °F
N
4.9
Wind Variable Wind from SW
Gusts 16.0 mph

Today
High -- | Low -- °F
--% Chance of Precip.
Yesterday
High -- | Low -- °F
Precip. -- in
Pressure 29.90 in
Visibility 10.0 miles
Clouds Clear
Dew Point 42 °F
Humidity 51%
Rainfall 0.00 in
Snow Depth Not available.
7:12 AM 5:50 PM
Waning Crescent, 20% visible
METAR KGLS 230552Z AUTO 31012G21KT 10SM CLR 17/05 A2990 RMK AO2 SLP125 T01670050 10183 20167 402220161 51024
Pressure 29.90 in
Visibility 10.0 miles
Clouds Clear
Dew Point 42 °F
Humidity 51%
Rainfall 0.00 in
Snow Depth Not available.
7:12 AM 5:50 PM
Waning Crescent, 20% visible
METAR KGLS 230552Z AUTO 31012G21KT 10SM CLR 17/05 A2990 RMK AO2 SLP125 T01670050 10183 20167 402220161 51024

Get Your Daily Forecast Email!

Thanks for signing up!

Be on the lookout for a verification email in your inbox.

You'll start receiving the daily forecast at 8 AM.

×

10-Day Weather Forecast

Almanac

Astronomy

Jan. 23, 2017 Rise Set
Actual Time
Civil Twilight
Nautical Twilight
Astronomical Twilight
Moon
Length of Visible Light
Length of Day
Tomorrow will be .
, % of the Moon is Illuminated

Today's Extremes

State Highs State Lows

Community

WunderPhotos

Upload Photos

1,962,540 photos uploaded!

WunderBlog® & News

Nearby

Air Quality

  Air Quality AQ Index Pollutant
Not available.

Snow Depth

Station Depth Elevation

Earthquake Activity

City Distance Mag. Time & Date
Minimum magnitude displayed is 2.5.

Coastal Water Temperatures

Place Temperature

Stations

Nearby Weather Stations

Station Location Temp. Windchill Dew Point Humidity Wind Precip. Elev Updated Type
                   

Watches & Warnings

Small Craft Advisory
Issued: 9:59 PM CST Jan. 22, 2017 – National Weather Service

... Small Craft Advisory in effect until 3 am CST Monday...
... Gale Warning is cancelled...

The National Weather Service in Houston/Galveston has issued a
Small Craft Advisory... which is in effect until 3 am CST Monday.
The Gale Warning has been cancelled.

* Winds... northwest 20 to 30 knots gradually diminishing after
midnight.

* Seas... 3 to 5 feet.

Precautionary/preparedness actions...

A Small Craft Advisory means that wind speeds of 20 to 33 knots...
and/or seas 7 feet or higher... are expected to produce hazardous
conditions for small craft. Inexperienced boaters... especially
those operating smaller vessels should avoid navigating in these
conditions.